sensor_id;sensor_type;location;lat;lon;timestamp;temperature;humidity
70246;SHT30;57637;49.272;8.590;2022-09-06T00:00:57;19.55;62.23
70246;SHT30;57637;49.272;8.590;2022-09-06T00:03:22;19.55;62.37
70246;SHT30;57637;49.272;8.590;2022-09-06T00:05:48;19.55;62.42
70246;SHT30;57637;49.272;8.590;2022-09-06T00:08:15;19.51;62.64
70246;SHT30;57637;49.272;8.590;2022-09-06T00:10:40;19.49;62.97
70246;SHT30;57637;49.272;8.590;2022-09-06T00:13:07;19.46;63.08
70246;SHT30;57637;49.272;8.590;2022-09-06T00:15:34;19.42;63.37
70246;SHT30;57637;49.272;8.590;2022-09-06T00:18:00;19.39;63.54
70246;SHT30;57637;49.272;8.590;2022-09-06T00:20:28;19.35;63.85
70246;SHT30;57637;49.272;8.590;2022-09-06T00:22:58;19.36;63.90
70246;SHT30;57637;49.272;8.590;2022-09-06T00:25:24;19.29;64.40
70246;SHT30;57637;49.272;8.590;2022-09-06T00:27:58;19.31;64.52
70246;SHT30;57637;49.272;8.590;2022-09-06T00:30:25;19.29;64.71
70246;SHT30;57637;49.272;8.590;2022-09-06T00:32:52;19.29;64.83
70246;SHT30;57637;49.272;8.590;2022-09-06T00:35:18;19.31;65.04
70246;SHT30;57637;49.272;8.590;2022-09-06T00:37:45;19.29;65.16
70246;SHT30;57637;49.272;8.590;2022-09-06T00:40:11;19.32;65.25
70246;SHT30;57637;49.272;8.590;2022-09-06T00:42:37;19.29;65.34
70246;SHT30;57637;49.272;8.590;2022-09-06T00:45:03;19.29;65.47
70246;SHT30;57637;49.272;8.590;2022-09-06T00:47:31;19.38;65.24
70246;SHT30;57637;49.272;8.590;2022-09-06T00:50:00;19.38;65.33
70246;SHT30;57637;49.272;8.590;2022-09-06T00:52:26;19.41;65.28
70246;SHT30;57637;49.272;8.590;2022-09-06T00:54:53;19.42;65.30
70246;SHT30;57637;49.272;8.590;2022-09-06T00:57:19;19.41;65.31
70246;SHT30;57637;49.272;8.590;2022-09-06T00:59:45;19.38;65.45
70246;SHT30;57637;49.272;8.590;2022-09-06T01:02:12;19.42;65.48
70246;SHT30;57637;49.272;8.590;2022-09-06T01:04:38;19.39;65.48
70246;SHT30;57637;49.272;8.590;2022-09-06T01:15:34;19.43;65.44
70246;SHT30;57637;49.272;8.590;2022-09-06T01:32:38;19.46;65.82
70246;SHT30;57637;49.272;8.590;2022-09-06T01:37:57;19.29;67.22
70246;SHT30;57637;49.272;8.590;2022-09-06T01:40:24;19.35;67.10
70246;SHT30;57637;49.272;8.590;2022-09-06T01:42:51;19.35;67.23
70246;SHT30;57637;49.272;8.590;2022-09-06T01:45:19;19.35;67.30
70246;SHT30;57637;49.272;8.590;2022-09-06T01:55:59;19.28;68.59
70246;SHT30;57637;49.272;8.590;2022-09-06T01:58:42;19.31;68.33
70246;SHT30;57637;49.272;8.590;2022-09-06T02:03:39;19.36;68.19
70246;SHT30;57637;49.272;8.590;2022-09-06T02:06:12;19.36;69.23
70246;SHT30;57637;49.272;8.590;2022-09-06T02:08:42;19.33;69.99
70246;SHT30;57637;49.272;8.590;2022-09-06T02:11:11;19.29;71.33
70246;SHT30;57637;49.272;8.590;2022-09-06T02:13:49;19.23;71.68
70246;SHT30;57637;49.272;8.590;2022-09-06T02:16:20;19.28;71.74
70246;SHT30;57637;49.272;8.590;2022-09-06T02:18:55;19.23;73.25
70246;SHT30;57637;49.272;8.590;2022-09-06T02:21:27;19.23;73.73
70246;SHT30;57637;49.272;8.590;2022-09-06T02:23:58;19.29;73.14
70246;SHT30;57637;49.272;8.590;2022-09-06T02:26:27;19.32;72.66
70246;SHT30;57637;49.272;8.590;2022-09-06T02:28:56;19.36;72.39
70246;SHT30;57637;49.272;8.590;2022-09-06T02:31:23;19.32;73.12
70246;SHT30;57637;49.272;8.590;2022-09-06T02:33:53;19.29;73.88
70246;SHT30;57637;49.272;8.590;2022-09-06T02:36:19;19.28;75.09
70246;SHT30;57637;49.272;8.590;2022-09-06T02:38:45;19.15;76.39
70246;SHT30;57637;49.272;8.590;2022-09-06T02:41:11;18.94;77.45
70246;SHT30;57637;49.272;8.590;2022-09-06T02:43:42;18.68;78.71
70246;SHT30;57637;49.272;8.590;2022-09-06T02:46:08;18.46;79.79
70246;SHT30;57637;49.272;8.590;2022-09-06T02:48:33;18.36;80.20
70246;SHT30;57637;49.272;8.590;2022-09-06T02:51:08;18.41;79.59
70246;SHT30;57637;49.272;8.590;2022-09-06T02:53:34;18.41;79.44
70246;SHT30;57637;49.272;8.590;2022-09-06T02:56:00;18.43;79.04
70246;SHT30;57637;49.272;8.590;2022-09-06T02:58:26;18.41;79.22
70246;SHT30;57637;49.272;8.590;2022-09-06T03:00:52;18.06;80.13
70246;SHT30;57637;49.272;8.590;2022-09-06T03:03:18;17.93;80.51
70246;SHT30;57637;49.272;8.590;2022-09-06T03:05:48;17.79;81.68
70246;SHT30;57637;49.272;8.590;2022-09-06T03:08:18;17.83;81.66
70246;SHT30;57637;49.272;8.590;2022-09-06T03:10:48;17.83;81.62
70246;SHT30;57637;49.272;8.590;2022-09-06T03:13:14;17.81;81.69
70246;SHT30;57637;49.272;8.590;2022-09-06T03:15:39;17.65;82.64
70246;SHT30;57637;49.272;8.590;2022-09-06T03:18:05;17.58;82.62
70246;SHT30;57637;49.272;8.590;2022-09-06T03:20:31;17.51;82.87
70246;SHT30;57637;49.272;8.590;2022-09-06T03:22:56;17.51;82.50
70246;SHT30;57637;49.272;8.590;2022-09-06T03:25:21;17.54;82.50
70246;SHT30;57637;49.272;8.590;2022-09-06T03:27:47;17.46;83.05
70246;SHT30;57637;49.272;8.590;2022-09-06T03:30:12;17.44;83.18
70246;SHT30;57637;49.272;8.590;2022-09-06T03:32:38;17.35;83.86
70246;SHT30;57637;49.272;8.590;2022-09-06T03:35:03;17.32;84.29
70246;SHT30;57637;49.272;8.590;2022-09-06T03:37:29;17.32;84.46
70246;SHT30;57637;49.272;8.590;2022-09-06T03:39:54;17.30;84.91
70246;SHT30;57637;49.272;8.590;2022-09-06T03:42:19;17.24;85.34
70246;SHT30;57637;49.272;8.590;2022-09-06T03:44:46;17.18;85.61
70246;SHT30;57637;49.272;8.590;2022-09-06T03:47:11;17.20;85.68
70246;SHT30;57637;49.272;8.590;2022-09-06T03:49:36;17.20;85.79
70246;SHT30;57637;49.272;8.590;2022-09-06T03:52:02;17.23;85.49
70246;SHT30;57637;49.272;8.590;2022-09-06T03:54:27;17.21;85.90
70246;SHT30;57637;49.272;8.590;2022-09-06T03:56:54;17.23;85.68
70246;SHT30;57637;49.272;8.590;2022-09-06T03:59:19;17.21;85.54
70246;SHT30;57637;49.272;8.590;2022-09-06T04:01:45;17.23;85.68
70246;SHT30;57637;49.272;8.590;2022-09-06T04:04:10;17.25;85.68
70246;SHT30;57637;49.272;8.590;2022-09-06T04:06:36;17.24;85.63
70246;SHT30;57637;49.272;8.590;2022-09-06T04:09:01;17.20;85.46
70246;SHT30;57637;49.272;8.590;2022-09-06T04:11:26;17.20;85.74
70246;SHT30;57637;49.272;8.590;2022-09-06T04:13:52;17.04;85.72
70246;SHT30;57637;49.272;8.590;2022-09-06T04:16:17;16.94;86.26
70246;SHT30;57637;49.272;8.590;2022-09-06T04:18:43;17.02;87.17
70246;SHT30;57637;49.272;8.590;2022-09-06T04:21:08;17.02;87.07
70246;SHT30;57637;49.272;8.590;2022-09-06T04:23:34;17.04;86.62
70246;SHT30;57637;49.272;8.590;2022-09-06T04:25:59;17.00;86.94
70246;SHT30;57637;49.272;8.590;2022-09-06T04:28:25;16.94;87.01
70246;SHT30;57637;49.272;8.590;2022-09-06T04:30:52;16.86;87.02
70246;SHT30;57637;49.272;8.590;2022-09-06T04:33:25;16.81;87.06
70246;SHT30;57637;49.272;8.590;2022-09-06T04:35:52;16.80;87.27
70246;SHT30;57637;49.272;8.590;2022-09-06T04:38:20;16.79;87.29
70246;SHT30;57637;49.272;8.590;2022-09-06T04:40:46;16.77;87.32
70246;SHT30;57637;49.272;8.590;2022-09-06T04:43:12;16.77;87.43
70246;SHT30;57637;49.272;8.590;2022-09-06T04:45:37;16.73;87.58
70246;SHT30;57637;49.272;8.590;2022-09-06T04:48:02;16.70;87.68
70246;SHT30;57637;49.272;8.590;2022-09-06T04:50:28;16.70;87.86
70246;SHT30;57637;49.272;8.590;2022-09-06T04:52:54;16.64;88.15
70246;SHT30;57637;49.272;8.590;2022-09-06T04:55:19;16.59;88.15
70246;SHT30;57637;49.272;8.590;2022-09-06T04:57:44;16.53;88.02
70246;SHT30;57637;49.272;8.590;2022-09-06T05:00:10;16.53;87.66
70246;SHT30;57637;49.272;8.590;2022-09-06T05:02:35;16.53;88.09
70246;SHT30;57637;49.272;8.590;2022-09-06T05:05:01;16.52;88.14
70246;SHT30;57637;49.272;8.590;2022-09-06T05:07:26;16.56;88.09
70246;SHT30;57637;49.272;8.590;2022-09-06T05:09:52;16.60;88.14
70246;SHT30;57637;49.272;8.590;2022-09-06T05:12:17;16.69;88.23
70246;SHT30;57637;49.272;8.590;2022-09-06T05:14:42;16.77;88.08
70246;SHT30;57637;49.272;8.590;2022-09-06T05:17:08;16.86;87.93
70246;SHT30;57637;49.272;8.590;2022-09-06T05:19:33;16.93;87.77
70246;SHT30;57637;49.272;8.590;2022-09-06T05:21:58;17.08;87.43
70246;SHT30;57637;49.272;8.590;2022-09-06T05:24:24;17.23;87.13
70246;SHT30;57637;49.272;8.590;2022-09-06T05:26:49;17.37;86.71
70246;SHT30;57637;49.272;8.590;2022-09-06T05:29:14;17.62;86.25
70246;SHT30;57637;49.272;8.590;2022-09-06T05:31:40;17.95;84.90
70246;SHT30;57637;49.272;8.590;2022-09-06T05:34:05;18.12;83.82
70246;SHT30;57637;49.272;8.590;2022-09-06T05:36:31;18.29;84.16
70246;SHT30;57637;49.272;8.590;2022-09-06T05:38:56;18.53;83.29
70246;SHT30;57637;49.272;8.590;2022-09-06T05:41:23;18.95;82.38
70246;SHT30;57637;49.272;8.590;2022-09-06T05:43:49;19.21;81.30
70246;SHT30;57637;49.272;8.590;2022-09-06T05:46:15;19.36;80.64
70246;SHT30;57637;49.272;8.590;2022-09-06T05:48:41;19.32;80.83
70246;SHT30;57637;49.272;8.590;2022-09-06T05:51:07;19.28;80.66
70246;SHT30;57637;49.272;8.590;2022-09-06T05:53:45;19.39;80.51
70246;SHT30;57637;49.272;8.590;2022-09-06T05:56:11;19.35;80.23
70246;SHT30;57637;49.272;8.590;2022-09-06T05:58:38;19.25;80.99
70246;SHT30;57637;49.272;8.590;2022-09-06T06:01:17;19.15;81.10
70246;SHT30;57637;49.272;8.590;2022-09-06T06:03:50;19.05;81.50
70246;SHT30;57637;49.272;8.590;2022-09-06T06:06:23;19.04;81.74
70246;SHT30;57637;49.272;8.590;2022-09-06T06:08:50;18.94;81.85
70246;SHT30;57637;49.272;8.590;2022-09-06T06:11:16;19.00;81.75
70246;SHT30;57637;49.272;8.590;2022-09-06T06:13:42;18.97;82.18
70246;SHT30;57637;49.272;8.590;2022-09-06T06:16:10;18.94;82.62
70246;SHT30;57637;49.272;8.590;2022-09-06T06:18:37;18.91;82.75
70246;SHT30;57637;49.272;8.590;2022-09-06T06:21:06;18.91;82.61
70246;SHT30;57637;49.272;8.590;2022-09-06T06:23:35;18.95;82.72
70246;SHT30;57637;49.272;8.590;2022-09-06T06:26:00;18.81;83.18
70246;SHT30;57637;49.272;8.590;2022-09-06T06:28:26;18.80;83.12
70246;SHT30;57637;49.272;8.590;2022-09-06T06:30:51;18.58;83.65
70246;SHT30;57637;49.272;8.590;2022-09-06T06:33:18;18.60;83.96
70246;SHT30;57637;49.272;8.590;2022-09-06T06:35:56;18.13;85.42
70246;SHT30;57637;49.272;8.590;2022-09-06T06:38:28;18.29;85.35
70246;SHT30;57637;49.272;8.590;2022-09-06T06:40:55;18.34;84.90
70246;SHT30;57637;49.272;8.590;2022-09-06T06:43:20;18.77;84.57
70246;SHT30;57637;49.272;8.590;2022-09-06T06:45:48;19.18;83.25
70246;SHT30;57637;49.272;8.590;2022-09-06T06:48:14;19.32;82.75
70246;SHT30;57637;49.272;8.590;2022-09-06T06:50:40;19.38;82.62
70246;SHT30;57637;49.272;8.590;2022-09-06T06:53:06;19.61;81.50
70246;SHT30;57637;49.272;8.590;2022-09-06T06:55:31;19.29;81.50
70246;SHT30;57637;49.272;8.590;2022-09-06T06:58:00;19.79;80.46
70246;SHT30;57637;49.272;8.590;2022-09-06T07:00:26;20.18;79.10
70246;SHT30;57637;49.272;8.590;2022-09-06T07:02:51;20.17;78.78
70246;SHT30;57637;49.272;8.590;2022-09-06T07:05:17;19.79;80.28
70246;SHT30;57637;49.272;8.590;2022-09-06T07:07:43;19.41;81.47
70246;SHT30;57637;49.272;8.590;2022-09-06T07:10:08;19.92;80.06
70246;SHT30;57637;49.272;8.590;2022-09-06T07:12:35;20.09;79.59
70246;SHT30;57637;49.272;8.590;2022-09-06T07:15:00;20.04;79.13
70246;SHT30;57637;49.272;8.590;2022-09-06T07:17:26;19.90;79.37
70246;SHT30;57637;49.272;8.590;2022-09-06T07:19:52;20.07;79.51
70246;SHT30;57637;49.272;8.590;2022-09-06T07:22:17;19.90;79.60
70246;SHT30;57637;49.272;8.590;2022-09-06T07:24:42;20.16;79.24
70246;SHT30;57637;49.272;8.590;2022-09-06T07:27:08;20.41;78.23
70246;SHT30;57637;49.272;8.590;2022-09-06T07:29:33;20.41;78.49
70246;SHT30;57637;49.272;8.590;2022-09-06T07:31:59;20.52;78.63
70246;SHT30;57637;49.272;8.590;2022-09-06T07:34:24;21.10;76.38
70246;SHT30;57637;49.272;8.590;2022-09-06T07:36:53;20.98;77.01
70246;SHT30;57637;49.272;8.590;2022-09-06T07:39:19;21.09;76.75
70246;SHT30;57637;49.272;8.590;2022-09-06T07:41:45;20.57;77.66
70246;SHT30;57637;49.272;8.590;2022-09-06T07:44:10;21.02;76.46
70246;SHT30;57637;49.272;8.590;2022-09-06T07:46:36;21.59;74.49
70246;SHT30;57637;49.272;8.590;2022-09-06T07:49:03;21.57;74.53
70246;SHT30;57637;49.272;8.590;2022-09-06T07:51:29;21.53;74.51
70246;SHT30;57637;49.272;8.590;2022-09-06T07:53:58;21.80;73.60
70246;SHT30;57637;49.272;8.590;2022-09-06T07:56:24;21.43;75.27
70246;SHT30;57637;49.272;8.590;2022-09-06T07:58:50;21.59;76.20
70246;SHT30;57637;49.272;8.590;2022-09-06T08:01:37;21.73;74.89
70246;SHT30;57637;49.272;8.590;2022-09-06T08:04:03;22.45;73.85
70246;SHT30;57637;49.272;8.590;2022-09-06T08:06:30;23.42;70.49
70246;SHT30;57637;49.272;8.590;2022-09-06T08:08:56;23.54;69.08
70246;SHT30;57637;49.272;8.590;2022-09-06T08:11:24;24.19;67.76
70246;SHT30;57637;49.272;8.590;2022-09-06T08:13:52;24.35;66.24
70246;SHT30;57637;49.272;8.590;2022-09-06T08:16:23;24.24;66.96
70246;SHT30;57637;49.272;8.590;2022-09-06T08:18:50;24.36;66.16
70246;SHT30;57637;49.272;8.590;2022-09-06T08:21:17;24.33;66.79
70246;SHT30;57637;49.272;8.590;2022-09-06T08:23:46;24.06;68.07
70246;SHT30;57637;49.272;8.590;2022-09-06T08:26:14;23.64;68.94
70246;SHT30;57637;49.272;8.590;2022-09-06T08:28:41;24.12;67.38
70246;SHT30;57637;49.272;8.590;2022-09-06T08:31:07;23.64;68.08
70246;SHT30;57637;49.272;8.590;2022-09-06T08:33:37;24.11;68.08
70246;SHT30;57637;49.272;8.590;2022-09-06T08:36:04;24.76;66.55
70246;SHT30;57637;49.272;8.590;2022-09-06T08:38:30;25.10;65.33
70246;SHT30;57637;49.272;8.590;2022-09-06T08:41:16;25.54;63.99
70246;SHT30;57637;49.272;8.590;2022-09-06T08:43:57;25.82;62.88
70246;SHT30;57637;49.272;8.590;2022-09-06T08:47:12;25.77;63.05
70246;SHT30;57637;49.272;8.590;2022-09-06T08:49:42;25.55;63.66
70246;SHT30;57637;49.272;8.590;2022-09-06T08:54:53;25.61;62.97
70246;SHT30;57637;49.272;8.590;2022-09-06T08:59:55;25.99;62.13
70246;SHT30;57637;49.272;8.590;2022-09-06T09:02:25;25.44;63.88
70246;SHT30;57637;49.272;8.590;2022-09-06T09:04:54;25.16;65.37
70246;SHT30;57637;49.272;8.590;2022-09-06T09:09:51;25.89;62.12
70246;SHT30;57637;49.272;8.590;2022-09-06T09:12:21;25.17;65.37
70246;SHT30;57637;49.272;8.590;2022-09-06T09:14:49;25.77;64.43
70246;SHT30;57637;49.272;8.590;2022-09-06T09:17:24;26.13;60.09
70246;SHT30;57637;49.272;8.590;2022-09-06T09:19:51;26.56;60.15
70246;SHT30;57637;49.272;8.590;2022-09-06T09:22:18;26.70;58.90
70246;SHT30;57637;49.272;8.590;2022-09-06T09:24:45;26.74;57.68
70246;SHT30;57637;49.272;8.590;2022-09-06T09:27:12;26.76;58.50
70246;SHT30;57637;49.272;8.590;2022-09-06T09:32:36;27.27;57.72
70246;SHT30;57637;49.272;8.590;2022-09-06T09:35:16;27.37;57.70
70246;SHT30;57637;49.272;8.590;2022-09-06T09:48:39;27.54;57.42
70246;SHT30;57637;49.272;8.590;2022-09-06T09:51:19;27.72;57.39
70246;SHT30;57637;49.272;8.590;2022-09-06T09:53:50;27.69;57.57
70246;SHT30;57637;49.272;8.590;2022-09-06T09:56:19;27.75;57.75
70246;SHT30;57637;49.272;8.590;2022-09-06T09:58:50;28.00;57.41
70246;SHT30;57637;49.272;8.590;2022-09-06T10:01:20;27.90;57.32
70246;SHT30;57637;49.272;8.590;2022-09-06T10:03:50;28.05;56.71
70246;SHT30;57637;49.272;8.590;2022-09-06T10:06:23;28.07;56.54
70246;SHT30;57637;49.272;8.590;2022-09-06T10:08:50;27.96;56.74
70246;SHT30;57637;49.272;8.590;2022-09-06T10:11:35;27.93;56.88
70246;SHT30;57637;49.272;8.590;2022-09-06T10:14:10;27.67;57.60
70246;SHT30;57637;49.272;8.590;2022-09-06T10:16:48;27.67;58.01
70246;SHT30;57637;49.272;8.590;2022-09-06T10:19:22;27.76;57.63
70246;SHT30;57637;49.272;8.590;2022-09-06T10:22:06;27.75;57.80
70246;SHT30;57637;49.272;8.590;2022-09-06T10:27:25;27.82;58.26
70246;SHT30;57637;49.272;8.590;2022-09-06T10:30:02;27.86;57.44
70246;SHT30;57637;49.272;8.590;2022-09-06T10:37:55;28.12;57.07
70246;SHT30;57637;49.272;8.590;2022-09-06T10:40:33;28.16;56.57
70246;SHT30;57637;49.272;8.590;2022-09-06T10:43:07;28.18;57.00
70246;SHT30;57637;49.272;8.590;2022-09-06T10:55:46;28.35;56.61
70246;SHT30;57637;49.272;8.590;2022-09-06T10:58:27;28.21;56.68
70246;SHT30;57637;49.272;8.590;2022-09-06T11:00:57;28.35;56.55
70246;SHT30;57637;49.272;8.590;2022-09-06T11:06:08;28.56;56.12
70246;SHT30;57637;49.272;8.590;2022-09-06T11:11:12;28.69;55.39
70246;SHT30;57637;49.272;8.590;2022-09-06T11:13:43;28.81;55.13
70246;SHT30;57637;49.272;8.590;2022-09-06T11:16:18;28.91;54.69
70246;SHT30;57637;49.272;8.590;2022-09-06T11:18:54;28.86;55.13
70246;SHT30;57637;49.272;8.590;2022-09-06T11:24:32;28.84;55.45
70246;SHT30;57637;49.272;8.590;2022-09-06T11:29:58;28.87;55.65
70246;SHT30;57637;49.272;8.590;2022-09-06T11:32:39;28.91;55.22
70246;SHT30;57637;49.272;8.590;2022-09-06T11:35:26;28.87;55.20
70246;SHT30;57637;49.272;8.590;2022-09-06T11:40:36;29.01;55.44
70246;SHT30;57637;49.272;8.590;2022-09-06T11:53:22;29.39;53.21
70246;SHT30;57637;49.272;8.590;2022-09-06T11:56:21;29.28;53.47
70246;SHT30;57637;49.272;8.590;2022-09-06T11:58:53;29.36;53.89
70246;SHT30;57637;49.272;8.590;2022-09-06T12:08:49;29.70;53.24
70246;SHT30;57637;49.272;8.590;2022-09-06T12:16:19;29.53;51.29
70246;SHT30;57637;49.272;8.590;2022-09-06T12:24:02;29.67;51.01
70246;SHT30;57637;49.272;8.590;2022-09-06T12:26:45;29.60;51.07
70246;SHT30;57637;49.272;8.590;2022-09-06T12:29:25;29.70;49.10
70246;SHT30;57637;49.272;8.590;2022-09-06T12:31:52;29.62;49.17
70246;SHT30;57637;49.272;8.590;2022-09-06T12:36:58;29.90;50.92
70246;SHT30;57637;49.272;8.590;2022-09-06T12:39:26;30.09;50.47
70246;SHT30;57637;49.272;8.590;2022-09-06T12:41:54;30.21;50.21
70246;SHT30;57637;49.272;8.590;2022-09-06T12:44:32;30.27;49.44
70246;SHT30;57637;49.272;8.590;2022-09-06T12:47:12;30.20;48.76
70246;SHT30;57637;49.272;8.590;2022-09-06T12:50:19;30.09;48.70
70246;SHT30;57637;49.272;8.590;2022-09-06T12:53:00;30.06;46.42
70246;SHT30;57637;49.272;8.590;2022-09-06T12:55:35;29.87;45.94
70246;SHT30;57637;49.272;8.590;2022-09-06T12:58:06;30.09;47.34
70246;SHT30;57637;49.272;8.590;2022-09-06T13:00:33;30.14;47.81
70246;SHT30;57637;49.272;8.590;2022-09-06T13:05:58;30.44;47.04
70246;SHT30;57637;49.272;8.590;2022-09-06T13:11:11;30.60;46.86
70246;SHT30;57637;49.272;8.590;2022-09-06T13:13:49;30.55;46.32
70246;SHT30;57637;49.272;8.590;2022-09-06T13:16:20;30.88;46.61
70246;SHT30;57637;49.272;8.590;2022-09-06T13:18:47;30.96;47.05
70246;SHT30;57637;49.272;8.590;2022-09-06T13:21:22;30.60;47.41
70246;SHT30;57637;49.272;8.590;2022-09-06T13:23:50;30.62;47.78
70246;SHT30;57637;49.272;8.590;2022-09-06T13:26:32;30.88;47.00
70246;SHT30;57637;49.272;8.590;2022-09-06T13:29:08;31.23;46.04
70246;SHT30;57637;49.272;8.590;2022-09-06T13:31:58;31.36;45.05
70246;SHT30;57637;49.272;8.590;2022-09-06T13:34:29;31.51;44.40
70246;SHT30;57637;49.272;8.590;2022-09-06T13:37:00;31.59;44.18
70246;SHT30;57637;49.272;8.590;2022-09-06T13:42:05;31.88;44.68
70246;SHT30;57637;49.272;8.590;2022-09-06T13:44:36;31.80;42.99
70246;SHT30;57637;49.272;8.590;2022-09-06T13:47:04;31.49;43.80
70246;SHT30;57637;49.272;8.590;2022-09-06T13:49:30;31.81;42.75
70246;SHT30;57637;49.272;8.590;2022-09-06T13:52:00;31.91;42.71
70246;SHT30;57637;49.272;8.590;2022-09-06T13:54:27;32.03;42.86
70246;SHT30;57637;49.272;8.590;2022-09-06T13:56:55;31.76;42.44
70246;SHT30;57637;49.272;8.590;2022-09-06T13:59:21;31.70;41.74
70246;SHT30;57637;49.272;8.590;2022-09-06T14:01:50;31.80;41.99
70246;SHT30;57637;49.272;8.590;2022-09-06T14:04:23;31.94;42.23
70246;SHT30;57637;49.272;8.590;2022-09-06T14:06:49;31.93;41.94
70246;SHT30;57637;49.272;8.590;2022-09-06T14:09:14;31.81;41.75
70246;SHT30;57637;49.272;8.590;2022-09-06T14:11:40;31.77;42.51
70246;SHT30;57637;49.272;8.590;2022-09-06T14:14:06;31.77;43.35
70246;SHT30;57637;49.272;8.590;2022-09-06T14:16:33;31.88;42.95
70246;SHT30;57637;49.272;8.590;2022-09-06T14:18:59;32.00;42.75
70246;SHT30;57637;49.272;8.590;2022-09-06T14:21:24;32.01;42.94
70246;SHT30;57637;49.272;8.590;2022-09-06T14:23:50;31.78;43.43
70246;SHT30;57637;49.272;8.590;2022-09-06T14:26:16;31.87;43.14
70246;SHT30;57637;49.272;8.590;2022-09-06T14:28:43;31.86;43.57
70246;SHT30;57637;49.272;8.590;2022-09-06T14:31:10;31.74;44.26
70246;SHT30;57637;49.272;8.590;2022-09-06T14:33:40;31.69;43.98
70246;SHT30;57637;49.272;8.590;2022-09-06T14:36:06;31.54;43.17
70246;SHT30;57637;49.272;8.590;2022-09-06T14:38:34;31.37;43.11
70246;SHT30;57637;49.272;8.590;2022-09-06T14:41:02;31.39;43.53
70246;SHT30;57637;49.272;8.590;2022-09-06T14:43:29;31.56;42.83
70246;SHT30;57637;49.272;8.590;2022-09-06T14:45:54;31.72;42.87
70246;SHT30;57637;49.272;8.590;2022-09-06T14:48:22;31.18;42.80
70246;SHT30;57637;49.272;8.590;2022-09-06T14:50:53;31.57;42.80
70246;SHT30;57637;49.272;8.590;2022-09-06T14:53:19;31.46;42.63
70246;SHT30;57637;49.272;8.590;2022-09-06T14:55:44;31.72;42.75
70246;SHT30;57637;49.272;8.590;2022-09-06T14:58:10;31.76;42.54
70246;SHT30;57637;49.272;8.590;2022-09-06T15:00:38;31.76;42.42
70246;SHT30;57637;49.272;8.590;2022-09-06T15:03:03;31.63;42.81
70246;SHT30;57637;49.272;8.590;2022-09-06T15:05:28;31.67;42.71
70246;SHT30;57637;49.272;8.590;2022-09-06T15:07:54;31.72;42.47
70246;SHT30;57637;49.272;8.590;2022-09-06T15:10:19;31.70;42.45
70246;SHT30;57637;49.272;8.590;2022-09-06T15:12:45;31.70;42.38
70246;SHT30;57637;49.272;8.590;2022-09-06T15:15:10;31.76;42.83
70246;SHT30;57637;49.272;8.590;2022-09-06T15:17:36;31.54;43.13
70246;SHT30;57637;49.272;8.590;2022-09-06T15:20:01;31.51;43.83
70246;SHT30;57637;49.272;8.590;2022-09-06T15:22:28;31.54;43.18
70246;SHT30;57637;49.272;8.590;2022-09-06T15:24:53;31.54;43.00
70246;SHT30;57637;49.272;8.590;2022-09-06T15:27:19;31.63;42.74
70246;SHT30;57637;49.272;8.590;2022-09-06T15:29:45;31.74;42.94
70246;SHT30;57637;49.272;8.590;2022-09-06T15:32:10;31.81;42.53
70246;SHT30;57637;49.272;8.590;2022-09-06T15:34:36;31.62;42.98
70246;SHT30;57637;49.272;8.590;2022-09-06T15:37:01;31.57;43.64
70246;SHT30;57637;49.272;8.590;2022-09-06T15:39:27;31.50;44.06
70246;SHT30;57637;49.272;8.590;2022-09-06T15:41:52;31.46;43.84
70246;SHT30;57637;49.272;8.590;2022-09-06T15:44:18;31.35;43.21
70246;SHT30;57637;49.272;8.590;2022-09-06T15:46:46;31.08;44.21
70246;SHT30;57637;49.272;8.590;2022-09-06T15:49:35;30.96;44.60
70246;SHT30;57637;49.272;8.590;2022-09-06T15:52:01;30.60;45.26
70246;SHT30;57637;49.272;8.590;2022-09-06T15:54:27;30.44;45.61
70246;SHT30;57637;49.272;8.590;2022-09-06T15:57:25;30.33;45.49
70246;SHT30;57637;49.272;8.590;2022-09-06T15:59:52;30.33;45.15
70246;SHT30;57637;49.272;8.590;2022-09-06T16:02:18;30.30;45.16
70246;SHT30;57637;49.272;8.590;2022-09-06T16:04:44;30.25;45.40
70246;SHT30;57637;49.272;8.590;2022-09-06T16:07:10;30.11;45.49
70246;SHT30;57637;49.272;8.590;2022-09-06T16:09:36;30.07;45.82
70246;SHT30;57637;49.272;8.590;2022-09-06T16:12:02;30.09;46.03
70246;SHT30;57637;49.272;8.590;2022-09-06T16:14:27;30.13;46.23
70246;SHT30;57637;49.272;8.590;2022-09-06T16:16:53;30.06;46.09
70246;SHT30;57637;49.272;8.590;2022-09-06T16:19:18;29.94;46.02
70246;SHT30;57637;49.272;8.590;2022-09-06T16:21:44;29.96;45.96
70246;SHT30;57637;49.272;8.590;2022-09-06T16:24:10;30.10;46.23
70246;SHT30;57637;49.272;8.590;2022-09-06T16:26:38;30.18;45.73
70246;SHT30;57637;49.272;8.590;2022-09-06T16:29:05;30.28;46.10
70246;SHT30;57637;49.272;8.590;2022-09-06T16:31:32;30.34;46.08
70246;SHT30;57637;49.272;8.590;2022-09-06T16:33:58;30.17;44.88
70246;SHT30;57637;49.272;8.590;2022-09-06T16:36:24;30.16;44.88
70246;SHT30;57637;49.272;8.590;2022-09-06T16:38:50;30.07;44.55
70246;SHT30;57637;49.272;8.590;2022-09-06T16:41:26;30.00;44.63
70246;SHT30;57637;49.272;8.590;2022-09-06T16:43:55;29.90;44.76
70246;SHT30;57637;49.272;8.590;2022-09-06T16:46:22;29.83;45.33
70246;SHT30;57637;49.272;8.590;2022-09-06T16:48:49;29.65;45.85
70246;SHT30;57637;49.272;8.590;2022-09-06T16:51:19;29.65;46.04
70246;SHT30;57637;49.272;8.590;2022-09-06T16:53:46;29.62;46.18
70246;SHT30;57637;49.272;8.590;2022-09-06T16:56:13;29.50;46.36
70246;SHT30;57637;49.272;8.590;2022-09-06T16:58:42;29.45;46.43
70246;SHT30;57637;49.272;8.590;2022-09-06T17:01:12;29.39;46.77
70246;SHT30;57637;49.272;8.590;2022-09-06T17:03:38;29.30;46.85
70246;SHT30;57637;49.272;8.590;2022-09-06T17:06:04;29.26;46.86
70246;SHT30;57637;49.272;8.590;2022-09-06T17:08:31;29.20;47.31
70246;SHT30;57637;49.272;8.590;2022-09-06T17:11:05;29.11;47.21
70246;SHT30;57637;49.272;8.590;2022-09-06T17:13:33;28.91;48.12
70246;SHT30;57637;49.272;8.590;2022-09-06T17:15:59;28.82;48.35
70246;SHT30;57637;49.272;8.590;2022-09-06T17:18:43;28.72;48.55
70246;SHT30;57637;49.272;8.590;2022-09-06T17:21:08;28.60;48.43
70246;SHT30;57637;49.272;8.590;2022-09-06T17:23:34;28.44;48.93
70246;SHT30;57637;49.272;8.590;2022-09-06T17:26:00;28.36;49.03
70246;SHT30;57637;49.272;8.590;2022-09-06T17:28:27;28.30;49.18
70246;SHT30;57637;49.272;8.590;2022-09-06T17:30:52;28.06;49.80
70246;SHT30;57637;49.272;8.590;2022-09-06T17:33:19;27.99;49.88
70246;SHT30;57637;49.272;8.590;2022-09-06T17:35:45;27.85;50.37
70246;SHT30;57637;49.272;8.590;2022-09-06T17:38:11;27.67;50.82
70246;SHT30;57637;49.272;8.590;2022-09-06T17:40:37;27.52;51.62
70246;SHT30;57637;49.272;8.590;2022-09-06T17:43:03;27.46;51.63
70246;SHT30;57637;49.272;8.590;2022-09-06T17:45:34;27.39;51.97
70246;SHT30;57637;49.272;8.590;2022-09-06T17:48:01;27.30;51.74